createdAt,value
2023-02-15T00:01:49.107Z,2.32
2023-02-15T00:04:18.747Z,2.40
2023-02-15T00:06:47.843Z,2.39
2023-02-15T00:09:15.762Z,2.33
2023-02-15T00:11:50.716Z,2.30
2023-02-15T00:14:20.661Z,2.22
2023-02-15T00:16:49.573Z,2.30
2023-02-15T00:19:19.197Z,2.09
2023-02-15T00:21:48.700Z,2.21
2023-02-15T00:24:18.868Z,2.07
2023-02-15T00:26:47.092Z,2.16
2023-02-15T00:29:16.545Z,2.13
2023-02-15T00:31:44.749Z,2.15
2023-02-15T00:34:13.995Z,2.04
2023-02-15T00:36:41.958Z,1.86
2023-02-15T00:39:11.399Z,1.80
2023-02-15T00:41:39.457Z,2.07
2023-02-15T00:44:07.411Z,1.83
2023-02-15T00:46:35.523Z,1.73
2023-02-15T00:49:03.610Z,1.73
2023-02-15T00:51:31.837Z,1.66
2023-02-15T00:53:59.599Z,1.35
2023-02-15T00:56:29.798Z,1.81
2023-02-15T00:58:57.892Z,1.78
2023-02-15T01:01:27.019Z,1.85
2023-02-15T01:03:55.156Z,1.76
2023-02-15T01:06:22.941Z,1.86
2023-02-15T01:08:50.669Z,1.80
2023-02-15T01:11:23.036Z,1.83
2023-02-15T01:13:53.702Z,1.81
2023-02-15T01:16:22.213Z,1.67
2023-02-15T01:18:50.292Z,1.67
2023-02-15T01:21:19.762Z,1.73
2023-02-15T01:23:47.821Z,1.67
2023-02-15T01:26:16.348Z,1.70
2023-02-15T01:28:44.083Z,1.67
2023-02-15T01:31:15.480Z,1.68
2023-02-15T01:33:43.773Z,1.51
2023-02-15T01:36:11.944Z,1.59
2023-02-15T01:38:40.827Z,1.50
2023-02-15T01:41:24.989Z,1.29
2023-02-15T01:43:54.580Z,1.52
2023-02-15T01:46:27.310Z,1.72
2023-02-15T01:48:59.253Z,1.74
2023-02-15T01:51:29.858Z,1.78
2023-02-15T01:54:00.855Z,1.65
2023-02-15T01:56:31.782Z,1.66
2023-02-15T01:59:02.072Z,1.60
2023-02-15T02:01:31.213Z,1.59
2023-02-15T02:04:02.046Z,1.67
2023-02-15T02:06:30.183Z,1.64
2023-02-15T02:08:58.588Z,1.59
2023-02-15T02:11:27.044Z,1.64
2023-02-15T02:13:55.875Z,1.61
2023-02-15T02:16:26.002Z,1.64
2023-02-15T02:19:05.284Z,1.57
2023-02-15T02:21:51.591Z,1.54
2023-02-15T02:24:34.739Z,1.44
2023-02-15T02:27:20.842Z,1.45
2023-02-15T02:30:11.443Z,1.57
2023-02-15T02:32:54.265Z,1.60
2023-02-15T02:35:26.653Z,1.57
2023-02-15T02:38:04.441Z,1.38
2023-02-15T02:40:38.165Z,1.02
2023-02-15T02:43:11.179Z,1.37
2023-02-15T02:45:45.432Z,1.24
2023-02-15T02:48:17.537Z,1.00
2023-02-15T02:50:45.217Z,1.06
2023-02-15T02:53:13.206Z,1.19
2023-02-15T02:55:43.318Z,1.31
2023-02-15T02:58:13.902Z,0.89
2023-02-15T03:00:44.940Z,1.01
2023-02-15T03:03:16.547Z,1.01
2023-02-15T03:05:47.244Z,0.96
2023-02-15T03:08:22.668Z,0.96
2023-02-15T03:10:51.052Z,0.74
2023-02-15T03:13:18.934Z,0.83
2023-02-15T03:16:04.609Z,1.21
2023-02-15T03:18:36.544Z,1.22
2023-02-15T03:21:05.364Z,0.97
2023-02-15T03:23:34.762Z,0.77
2023-02-15T03:26:04.427Z,0.78
2023-02-15T03:28:37.069Z,0.86
2023-02-15T03:31:07.458Z,1.15
2023-02-15T03:33:38.282Z,1.08
2023-02-15T03:36:10.717Z,0.85
2023-02-15T03:38:42.931Z,0.57
2023-02-15T03:41:11.482Z,0.84
2023-02-15T03:43:45.444Z,0.73
2023-02-15T03:46:17.580Z,0.60
2023-02-15T03:48:50.292Z,0.50
2023-02-15T03:51:39.059Z,0.60
2023-02-15T03:54:09.946Z,0.77
2023-02-15T03:56:38.604Z,0.53
2023-02-15T03:59:24.246Z,0.75
2023-02-15T04:02:00.282Z,0.57
2023-02-15T04:04:36.060Z,0.60
2023-02-15T04:07:05.669Z,0.79
2023-02-15T04:09:51.151Z,0.68
2023-02-15T04:12:19.132Z,0.46
2023-02-15T04:15:04.664Z,0.46
2023-02-15T04:17:32.323Z,0.20
2023-02-15T04:20:18.861Z,0.19
2023-02-15T04:23:04.270Z,0.19
2023-02-15T04:25:32.253Z,0.25
2023-02-15T04:27:59.951Z,0.26
2023-02-15T04:30:28.504Z,0.35
2023-02-15T04:32:58.071Z,0.27
2023-02-15T04:35:27.800Z,0.17
2023-02-15T04:37:56.868Z,0.19
2023-02-15T04:40:24.662Z,0.16
2023-02-15T04:42:52.326Z,0.55
2023-02-15T04:45:20.017Z,0.70
2023-02-15T04:47:48.019Z,0.44
2023-02-15T04:50:15.961Z,0.41
2023-02-15T04:52:45.343Z,0.26
2023-02-15T04:55:13.064Z,0.34
2023-02-15T04:57:40.769Z,0.46
2023-02-15T05:00:10.674Z,0.19
2023-02-15T05:02:38.718Z,0.02
2023-02-15T05:05:07.333Z,0.23
2023-02-15T05:07:35.047Z,0.26
2023-02-15T05:10:04.403Z,0.25
2023-02-15T05:12:32.200Z,0.49
2023-02-15T05:14:59.843Z,0.45
2023-02-15T05:17:27.616Z,0.35
2023-02-15T05:19:55.292Z,0.46
2023-02-15T05:22:22.958Z,0.56
2023-02-15T05:25:08.449Z,0.52
2023-02-15T05:27:55.166Z,0.42
2023-02-15T05:30:23.013Z,0.41
2023-02-15T05:32:50.894Z,0.41
2023-02-15T05:35:19.006Z,0.16
2023-02-15T05:37:46.653Z,-0.14
2023-02-15T05:40:14.483Z,0.10
2023-02-15T05:42:43.770Z,0.11
2023-02-15T05:45:11.689Z,0.23
2023-02-15T05:47:39.357Z,0.35
2023-02-15T05:50:08.353Z,0.30
2023-02-15T05:52:36.300Z,0.11
2023-02-15T05:55:05.179Z,0.26
2023-02-15T05:57:33.065Z,0.03
2023-02-15T06:00:02.418Z,0.26
2023-02-15T06:02:30.153Z,0.23
2023-02-15T06:04:57.828Z,0.27
2023-02-15T06:07:25.477Z,0.17
2023-02-15T06:09:53.400Z,0.01
2023-02-15T06:12:21.050Z,0.11
2023-02-15T06:14:48.704Z,0.28
2023-02-15T06:17:18.255Z,0.23
2023-02-15T06:19:46.053Z,0.23
2023-02-15T06:22:14.984Z,0.19
2023-02-15T06:24:43.796Z,0.31
2023-02-15T06:27:11.736Z,0.19
2023-02-15T06:29:39.472Z,0.11
2023-02-15T06:32:07.749Z,0.17
2023-02-15T06:34:36.902Z,0.09
2023-02-15T06:37:04.670Z,-0.11
2023-02-15T06:39:32.365Z,0.05
2023-02-15T06:42:00.264Z,0.09
2023-02-15T06:44:27.985Z,0.17
2023-02-15T06:46:55.690Z,0.31
2023-02-15T06:49:23.365Z,0.30
2023-02-15T06:51:52.447Z,0.37
2023-02-15T06:54:20.459Z,0.34
2023-02-15T06:56:48.144Z,0.30
2023-02-15T06:59:15.845Z,0.42
2023-02-15T07:01:43.545Z,0.40
2023-02-15T07:04:11.697Z,0.44
2023-02-15T07:06:39.397Z,0.52
2023-02-15T07:09:08.694Z,0.64
2023-02-15T07:11:53.899Z,0.62
2023-02-15T07:14:23.686Z,0.67
2023-02-15T07:16:51.391Z,0.77
2023-02-15T07:19:19.133Z,0.72
2023-02-15T07:21:47.591Z,0.79
2023-02-15T07:24:16.708Z,0.78
2023-02-15T07:26:44.362Z,0.85
2023-02-15T07:29:12.178Z,0.87
2023-02-15T07:31:40.001Z,1.09
2023-02-15T07:34:08.398Z,1.05
2023-02-15T07:36:36.520Z,1.08
2023-02-15T07:39:04.373Z,1.11
2023-02-15T07:41:33.713Z,1.20
2023-02-15T07:44:01.625Z,1.40
2023-02-15T07:46:29.345Z,1.43
2023-02-15T07:48:57.010Z,1.47
2023-02-15T07:51:24.731Z,1.56
2023-02-15T07:53:52.823Z,1.60
2023-02-15T07:56:20.857Z,1.74
2023-02-15T07:58:52.923Z,1.83
2023-02-15T08:01:21.958Z,1.92
2023-02-15T08:03:50.095Z,1.96
2023-02-15T08:06:18.437Z,2.08
2023-02-15T08:08:46.283Z,2.11
2023-02-15T08:11:30.183Z,2.18
2023-02-15T08:14:03.347Z,2.23
2023-02-15T08:16:33.767Z,2.26
2023-02-15T08:19:03.744Z,2.43
2023-02-15T08:21:31.849Z,2.41
2023-02-15T08:24:00.175Z,2.50
2023-02-15T08:26:28.806Z,2.61
2023-02-15T08:28:56.856Z,2.63
2023-02-15T08:31:26.699Z,2.72
2023-02-15T08:33:55.615Z,2.80
2023-02-15T08:36:25.240Z,2.91
2023-02-15T08:38:53.118Z,3.03
2023-02-15T08:41:22.531Z,3.04
2023-02-15T08:43:53.173Z,3.10
2023-02-15T08:46:21.106Z,3.33
2023-02-15T08:48:50.457Z,3.37
2023-02-15T08:51:19.969Z,3.35
2023-02-15T08:53:50.376Z,3.53
2023-02-15T08:56:18.518Z,3.70
2023-02-15T08:58:46.693Z,3.78
2023-02-15T09:01:18.805Z,3.84
2023-02-15T09:03:47.331Z,3.89
2023-02-15T09:06:16.793Z,4.06
2023-02-15T09:08:44.630Z,4.33
2023-02-15T09:11:14.034Z,4.44
2023-02-15T09:13:42.081Z,4.60
2023-02-15T09:16:11.334Z,4.76
2023-02-15T09:18:40.630Z,4.82
2023-02-15T09:21:10.038Z,4.96
2023-02-15T09:23:39.152Z,5.13
2023-02-15T09:26:08.338Z,5.26
2023-02-15T09:28:36.745Z,5.34
2023-02-15T09:31:09.614Z,5.49
2023-02-15T09:33:37.920Z,5.45
2023-02-15T09:36:06.543Z,5.68
2023-02-15T09:38:34.372Z,5.75
2023-02-15T09:41:23.705Z,5.92
2023-02-15T09:43:59.384Z,5.71
2023-02-15T09:46:36.983Z,6.07
2023-02-15T09:49:12.515Z,6.22
2023-02-15T09:51:53.842Z,6.24
2023-02-15T09:54:41.914Z,6.61
2023-02-15T09:57:18.084Z,6.55
2023-02-15T09:59:52.528Z,6.70
2023-02-15T10:02:36.852Z,7.06
2023-02-15T10:05:13.533Z,7.18
2023-02-15T10:07:57.538Z,7.34
2023-02-15T10:10:29.627Z,7.50
2023-02-15T10:13:10.464Z,7.64
2023-02-15T10:15:53.243Z,7.64
2023-02-15T10:18:36.889Z,7.66
2023-02-15T10:21:11.069Z,7.79
2023-02-15T10:23:49.464Z,7.80
2023-02-15T10:26:20.746Z,7.79
2023-02-15T10:28:52.244Z,7.97
2023-02-15T10:31:26.620Z,8.07
2023-02-15T10:34:06.265Z,8.00
2023-02-15T10:36:46.027Z,8.36
2023-02-15T10:39:22.737Z,8.30
2023-02-15T10:41:57.727Z,8.54
2023-02-15T10:44:37.695Z,8.70
2023-02-15T10:47:25.194Z,8.82
2023-02-15T10:50:08.720Z,9.14
2023-02-15T10:52:45.617Z,9.33
2023-02-15T10:55:19.193Z,9.39
2023-02-15T10:57:54.106Z,9.36
2023-02-15T11:00:26.984Z,9.58
2023-02-15T11:03:06.694Z,9.52
2023-02-15T11:05:43.609Z,9.85
2023-02-15T11:08:13.761Z,9.85
2023-02-15T11:10:45.149Z,10.20
2023-02-15T11:13:16.428Z,10.25
2023-02-15T11:15:49.362Z,10.34
2023-02-15T11:18:21.436Z,10.32
2023-02-15T11:20:55.579Z,10.34
2023-02-15T11:23:23.840Z,10.44
2023-02-15T11:25:58.341Z,10.66
2023-02-15T11:28:31.626Z,10.90
2023-02-15T11:31:04.807Z,11.01
2023-02-15T11:33:37.201Z,11.22
2023-02-15T11:36:09.001Z,11.03
2023-02-15T11:38:37.486Z,11.16
2023-02-15T11:41:07.850Z,11.17
2023-02-15T11:43:39.097Z,11.19
2023-02-15T11:46:12.198Z,11.31
2023-02-15T11:48:40.536Z,11.40
2023-02-15T11:51:10.925Z,11.47
2023-02-15T11:53:39.850Z,11.62
2023-02-15T11:56:15.789Z,11.63
2023-02-15T11:58:46.141Z,11.75
2023-02-15T12:01:18.333Z,11.82
2023-02-15T12:03:48.893Z,11.58
2023-02-15T12:06:22.430Z,11.97
2023-02-15T12:08:57.537Z,11.99
2023-02-15T12:11:30.913Z,12.12
2023-02-15T12:14:00.789Z,12.02
2023-02-15T12:16:31.482Z,12.36
2023-02-15T12:19:00.608Z,12.31
2023-02-15T12:21:31.821Z,12.40
2023-02-15T12:24:04.776Z,12.78
2023-02-15T12:26:34.214Z,12.73
2023-02-15T12:29:03.650Z,12.57
2023-02-15T12:31:39.313Z,12.76
2023-02-15T12:34:12.839Z,12.81
2023-02-15T12:36:47.487Z,12.90
2023-02-15T12:39:23.958Z,12.96
2023-02-15T12:42:02.270Z,13.05
2023-02-15T12:44:31.261Z,13.09
2023-02-15T12:47:02.195Z,13.39
2023-02-15T12:49:31.472Z,13.55
2023-02-15T12:52:00.859Z,13.64
2023-02-15T12:54:37.550Z,13.66
2023-02-15T12:57:25.700Z,13.57
2023-02-15T12:59:55.697Z,13.52
2023-02-15T13:02:27.880Z,13.78
2023-02-15T13:04:56.250Z,14.09
2023-02-15T13:07:24.439Z,14.01
2023-02-15T13:09:52.488Z,13.65
2023-02-15T13:12:24.306Z,13.47
2023-02-15T13:14:53.847Z,13.92
2023-02-15T13:17:27.946Z,13.82
2023-02-15T13:19:56.200Z,13.57
2023-02-15T13:22:25.855Z,13.75
2023-02-15T13:24:55.774Z,14.19
2023-02-15T13:27:25.030Z,13.93
2023-02-15T13:29:55.348Z,14.02
2023-02-15T13:32:31.394Z,14.31
2023-02-15T13:35:00.943Z,14.26
2023-02-15T13:37:43.330Z,14.00
2023-02-15T13:40:16.306Z,14.45
2023-02-15T13:42:47.155Z,14.71
2023-02-15T13:45:28.812Z,14.60
2023-02-15T13:48:02.480Z,14.86
2023-02-15T13:50:45.984Z,15.27
2023-02-15T13:53:24.542Z,15.23
2023-02-15T13:55:54.072Z,15.44
2023-02-15T13:58:39.165Z,15.45
2023-02-15T14:01:11.589Z,16.08
2023-02-15T14:03:52.887Z,17.15
2023-02-15T14:06:34.599Z,17.56
2023-02-15T14:09:13.735Z,17.40
2023-02-15T14:11:49.363Z,17.15
2023-02-15T14:14:26.548Z,17.30
2023-02-15T14:17:06.763Z,17.65
2023-02-15T14:19:42.285Z,18.02
2023-02-15T14:22:16.871Z,17.62
2023-02-15T14:24:49.035Z,18.92
2023-02-15T14:27:23.710Z,17.51
2023-02-15T14:29:54.275Z,17.87
2023-02-15T14:32:28.858Z,18.76
2023-02-15T14:34:59.913Z,19.22
2023-02-15T14:37:38.552Z,18.48
2023-02-15T14:40:27.803Z,18.60
2023-02-15T14:42:59.501Z,18.12
2023-02-15T14:45:33.775Z,18.61
2023-02-15T14:48:07.612Z,18.42
2023-02-15T14:50:45.110Z,18.10
2023-02-15T14:53:26.940Z,17.94
2023-02-15T14:56:19.152Z,19.10
2023-02-15T14:59:01.917Z,19.19
2023-02-15T15:01:31.228Z,18.59
2023-02-15T15:04:01.668Z,17.41
2023-02-15T15:06:33.343Z,17.55
2023-02-15T15:09:02.899Z,16.63
2023-02-15T15:11:44.657Z,16.00
2023-02-15T15:14:39.005Z,15.22
2023-02-15T15:17:07.578Z,14.80
2023-02-15T15:20:00.913Z,14.31
2023-02-15T15:22:31.316Z,14.00
2023-02-15T15:24:59.784Z,13.84
2023-02-15T15:27:43.927Z,13.71
2023-02-15T15:30:49.494Z,13.19
2023-02-15T15:33:33.448Z,13.32
2023-02-15T15:36:17.414Z,13.15
2023-02-15T15:38:55.212Z,12.88
2023-02-15T15:41:34.435Z,12.76
2023-02-15T15:44:27.082Z,12.27
2023-02-15T15:47:18.907Z,12.29
2023-02-15T15:49:46.589Z,11.76
2023-02-15T15:52:17.391Z,11.32
2023-02-15T15:54:48.499Z,11.37
2023-02-15T15:57:20.248Z,11.54
2023-02-15T15:59:48.599Z,11.32
2023-02-15T16:02:18.683Z,11.17
2023-02-15T16:04:49.193Z,10.74
2023-02-15T16:07:26.677Z,10.80
2023-02-15T16:10:00.873Z,10.87
2023-02-15T16:12:29.891Z,10.58
2023-02-15T16:14:58.234Z,10.07
2023-02-15T16:17:29.109Z,10.22
2023-02-15T16:20:02.357Z,10.28
2023-02-15T16:22:30.073Z,9.74
2023-02-15T16:25:21.468Z,9.64
2023-02-15T16:27:49.730Z,9.28
2023-02-15T16:30:26.289Z,9.24
2023-02-15T16:33:05.051Z,8.94
2023-02-15T16:35:33.077Z,8.90
2023-02-15T16:38:01.013Z,8.61
2023-02-15T16:40:42.956Z,8.75
2023-02-15T16:43:17.016Z,8.40
2023-02-15T16:45:44.700Z,8.45
2023-02-15T16:48:16.979Z,8.23
2023-02-15T16:50:49.797Z,8.00
2023-02-15T16:53:21.897Z,8.18
2023-02-15T16:55:53.983Z,8.42
2023-02-15T16:58:27.546Z,7.96
2023-02-15T17:00:58.163Z,7.99
2023-02-15T17:03:26.890Z,7.95
2023-02-15T17:05:56.843Z,7.78
2023-02-15T17:08:29.982Z,7.93
2023-02-15T17:11:15.299Z,8.11
2023-02-15T17:14:15.201Z,7.82
2023-02-15T17:16:45.541Z,7.74
2023-02-15T17:19:17.502Z,7.82
2023-02-15T17:21:50.526Z,7.97
2023-02-15T17:24:19.944Z,8.53
2023-02-15T17:26:53.031Z,8.50
2023-02-15T17:29:27.945Z,8.66
2023-02-15T17:31:58.486Z,8.92
2023-02-15T17:34:48.710Z,9.46
2023-02-15T17:37:26.307Z,9.78
2023-02-15T17:39:54.360Z,9.89
2023-02-15T17:42:23.380Z,10.27
2023-02-15T17:44:51.260Z,10.03
2023-02-15T17:47:20.771Z,10.19
2023-02-15T17:49:51.934Z,10.14
2023-02-15T17:52:19.781Z,9.99
2023-02-15T17:55:04.995Z,10.22
2023-02-15T17:57:34.430Z,10.21
2023-02-15T18:00:19.690Z,10.10
2023-02-15T18:03:05.552Z,10.04
2023-02-15T18:05:51.006Z,10.25
2023-02-15T18:08:37.488Z,10.30
2023-02-15T18:11:22.849Z,10.35
2023-02-15T18:13:51.948Z,10.06
2023-02-15T18:16:24.550Z,9.86
2023-02-15T18:18:52.209Z,9.80
2023-02-15T18:21:20.318Z,9.94
2023-02-15T18:23:47.969Z,9.76
2023-02-15T18:26:19.926Z,9.59
2023-02-15T18:28:47.722Z,9.54
2023-02-15T18:31:17.306Z,9.45
2023-02-15T18:33:48.169Z,9.77
2023-02-15T18:36:19.112Z,9.70
2023-02-15T18:38:46.791Z,9.18
2023-02-15T18:41:18.936Z,9.25
2023-02-15T18:43:48.831Z,10.07
2023-02-15T18:46:18.644Z,9.79
2023-02-15T18:48:47.604Z,9.76
2023-02-15T18:51:19.287Z,10.35
2023-02-15T18:53:48.040Z,9.93
2023-02-15T18:56:20.314Z,9.70
2023-02-15T18:58:49.271Z,9.59
2023-02-15T19:01:20.420Z,9.30
2023-02-15T19:03:49.158Z,9.01
2023-02-15T19:06:18.988Z,8.87
2023-02-15T19:08:49.076Z,8.80
2023-02-15T19:11:18.796Z,8.89
2023-02-15T19:13:49.034Z,8.47
2023-02-15T19:16:30.643Z,8.31
2023-02-15T19:18:59.122Z,8.30
2023-02-15T19:21:28.568Z,8.08
2023-02-15T19:23:59.229Z,8.00
2023-02-15T19:26:44.561Z,7.75
2023-02-15T19:29:14.004Z,7.51
2023-02-15T19:31:43.580Z,7.59
2023-02-15T19:34:14.801Z,7.51
2023-02-15T19:36:42.822Z,7.72
2023-02-15T19:39:23.953Z,8.67
2023-02-15T19:41:51.782Z,8.53
2023-02-15T19:44:19.967Z,8.97
2023-02-15T19:46:49.088Z,8.29
2023-02-15T19:49:17.025Z,7.68
2023-02-15T19:51:44.926Z,7.51
2023-02-15T19:54:21.952Z,7.16
2023-02-15T19:56:49.793Z,6.82
2023-02-15T19:59:24.133Z,6.77
2023-02-15T20:01:53.834Z,6.83
2023-02-15T20:04:21.848Z,6.67
2023-02-15T20:06:50.832Z,6.62
2023-02-15T20:09:24.055Z,6.68
2023-02-15T20:11:52.316Z,6.90
2023-02-15T20:14:20.634Z,7.17
2023-02-15T20:16:48.295Z,7.58
2023-02-15T20:19:17.747Z,7.75
2023-02-15T20:21:47.093Z,7.74
2023-02-15T20:24:16.829Z,7.77
2023-02-15T20:26:45.110Z,7.66
2023-02-15T20:29:15.173Z,7.77
2023-02-15T20:31:43.216Z,7.94
2023-02-15T20:34:11.120Z,7.93
2023-02-15T20:36:41.042Z,7.96
2023-02-15T20:39:15.260Z,7.80
2023-02-15T20:41:47.700Z,7.62
2023-02-15T20:44:21.877Z,7.59
2023-02-15T20:46:50.373Z,7.39
2023-02-15T20:49:18.124Z,7.59
2023-02-15T20:51:48.106Z,7.49
2023-02-15T20:54:17.820Z,7.32
2023-02-15T20:56:45.560Z,7.64
2023-02-15T20:59:23.463Z,7.72
2023-02-15T21:01:52.110Z,7.66
2023-02-15T21:04:29.306Z,7.58
2023-02-15T21:06:58.754Z,7.65
2023-02-15T21:09:26.441Z,7.66
2023-02-15T21:11:56.183Z,7.66
2023-02-15T21:14:25.371Z,7.59
2023-02-15T21:16:53.051Z,7.45
2023-02-15T21:19:22.554Z,7.32
2023-02-15T21:21:52.494Z,7.17
2023-02-15T21:24:24.882Z,7.09
2023-02-15T21:26:53.276Z,7.28
2023-02-15T21:29:22.079Z,7.12
2023-02-15T21:31:50.141Z,6.99
2023-02-15T21:34:19.450Z,6.88
2023-02-15T21:36:48.898Z,6.77
2023-02-15T21:39:19.316Z,6.74
2023-02-15T21:42:07.641Z,6.83
2023-02-15T21:44:52.948Z,6.67
2023-02-15T21:47:39.821Z,6.59
2023-02-15T21:50:23.282Z,6.68
2023-02-15T21:52:51.193Z,6.54
2023-02-15T21:55:19.149Z,6.63
2023-02-15T21:57:48.481Z,6.39
2023-02-15T22:00:18.412Z,6.40
2023-02-15T22:02:47.548Z,6.46
2023-02-15T22:05:18.074Z,6.46
2023-02-15T22:07:45.832Z,6.29
2023-02-15T22:10:13.703Z,6.23
2023-02-15T22:12:43.371Z,6.11
2023-02-15T22:15:20.312Z,6.09
2023-02-15T22:17:48.330Z,6.02
2023-02-15T22:20:17.908Z,6.21
2023-02-15T22:22:45.996Z,6.02
2023-02-15T22:25:16.134Z,6.09
2023-02-15T22:27:44.603Z,6.15
2023-02-15T22:30:22.963Z,6.10
2023-02-15T22:32:51.108Z,6.09
2023-02-15T22:35:20.644Z,6.16
2023-02-15T22:37:48.345Z,6.08
2023-02-15T22:40:17.237Z,5.84
2023-02-15T22:42:47.090Z,5.87
2023-02-15T22:45:19.991Z,5.92
2023-02-15T22:47:48.612Z,6.16
2023-02-15T22:50:18.952Z,6.25
2023-02-15T22:52:47.012Z,6.61
2023-02-15T22:55:16.483Z,6.65
2023-02-15T22:57:45.372Z,6.82
2023-02-15T23:00:18.343Z,6.85
2023-02-15T23:02:47.928Z,6.71
2023-02-15T23:05:19.709Z,6.86
2023-02-15T23:07:48.470Z,6.94
2023-02-15T23:10:22.206Z,6.90
2023-02-15T23:13:08.393Z,7.03
2023-02-15T23:15:37.107Z,6.93
2023-02-15T23:18:17.128Z,6.95
2023-02-15T23:20:45.585Z,6.96
2023-02-15T23:23:14.883Z,6.97
2023-02-15T23:25:43.168Z,7.04
2023-02-15T23:28:20.103Z,7.04
2023-02-15T23:30:48.551Z,7.07
2023-02-15T23:33:20.864Z,7.09
2023-02-15T23:35:48.638Z,7.11
2023-02-15T23:38:21.895Z,7.14
2023-02-15T23:41:10.448Z,7.15
2023-02-15T23:43:38.738Z,7.13
2023-02-15T23:46:08.105Z,7.11
2023-02-15T23:48:39.030Z,7.07
2023-02-15T23:51:11.485Z,7.06
2023-02-15T23:53:39.496Z,6.99
2023-02-15T23:56:07.726Z,6.96
2023-02-15T23:58:37.581Z,7.00
